Terminal Aerodrome Forecast
Issued by NWS Louisville, KY

Home | Current Version | Previous Version | Text Only | Print | Product List | Glossary On
Versions: 1 2 3 4 5 6 7 8 9 10 11 12 13 14 15 16 17 18 19
913
FTUS43 KLMK 280535
TAFLEX
TAF
KLEX 280535Z 2806/2906 18004KT 6SM -TSRA BR FEW040CB SCT060 BKN080
      TEMPO 2806/2810 2SM -TSRA BKN040CB
     FM281200 VRB04KT P6SM VCSH SCT008 BKN035
      TEMPO 2814/2818 2SM SHRA BKN008
     FM281800 25004KT 5SM BR VCSH BKN012
     FM282300 VRB04KT P6SM VCTS SCT025CB BKN050=

USA.gov is the U.S. government's official web portal to all federal, state and local government web resources and services.